Time;durP1;ratioP1;P1;durP2;ratioP2;P2;SDS_P1;SDS_P2;PMS_P1;PMS_P2;Temp;Humidity;BMP_temperature;BMP_pressure;BME280_temperature;BME280_humidity;BME280_pressure;Samples;Min_cycle;Max_cycle;Signal;HPM_P1;HPM_P2
2023/05/30 00:01:06;;;;;;;8.23;1.75;;;;;;;19.88;32.68;102513.34;16094015;19;131064;-46
2023/05/30 00:06:28;;;;;;;5.93;1.98;;;;;;;19.87;32.82;102508.84;16097452;19;131352;-50
2023/05/30 00:11:54;;;;;;;5.97;1.73;;;;;;;19.88;32.80;102518.06;16098414;19;132353;-46
2023/05/30 00:17:17;;;;;;;7.43;1.65;;;;;;;19.86;33.00;102520.19;16094566;19;130527;-48
2023/05/30 00:22:41;;;;;;;7.15;1.85;;;;;;;19.84;32.89;102525.94;16093548;19;131361;-48
2023/05/30 00:28:06;;;;;;;9.45;1.92;;;;;;;19.83;32.80;102527.88;16091648;19;131164;-45
2023/05/30 00:33:29;;;;;;;6.72;1.33;;;;;;;19.83;32.70;102532.56;16092758;19;130287;-48
2023/05/30 00:38:50;;;;;;;7.35;1.70;;;;;;;19.82;33.20;102536.41;16096295;19;134978;-48
2023/05/30 00:44:13;;;;;;;7.45;2.00;;;;;;;19.79;33.01;102537.69;15944216;19;2944059;-48
2023/05/30 00:49:35;;;;;;;6.07;1.48;;;;;;;19.79;32.75;102529.38;16098698;19;131049;-48
2023/05/30 00:55:02;;;;;;;6.82;1.52;;;;;;;19.79;33.09;102531.31;16095758;19;129782;-50
2023/05/30 01:00:26;;;;;;;7.60;2.05;;;;;;;19.79;32.83;102531.31;16103785;19;130191;-51
2023/05/30 01:05:47;;;;;;;6.75;2.40;;;;;;;19.77;32.84;102536.22;16101199;19;131105;-49
2023/05/30 01:11:32;;;;;;;8.68;2.08;;;;;;;19.75;32.83;102542.00;16099943;19;132247;-48
2023/05/30 01:17:00;;;;;;;7.25;1.67;;;;;;;19.76;33.29;102542.84;16100346;19;129821;-50
2023/05/30 01:22:50;;;;;;;5.50;1.45;;;;;;;19.77;33.01;102547.31;16097513;19;130303;-46
2023/05/30 01:28:13;;;;;;;5.45;1.55;;;;;;;19.72;33.34;102536.88;16098909;19;130813;-45
2023/05/30 01:33:36;;;;;;;5.78;1.85;;;;;;;19.71;33.11;102537.94;16097025;19;130666;-44
2023/05/30 01:38:58;;;;;;;7.68;1.70;;;;;;;19.69;33.14;102538.13;16099295;19;131638;-45
2023/05/30 01:44:33;;;;;;;5.50;1.70;;;;;;;19.71;33.27;102539.84;16096784;19;129526;-47
2023/05/30 01:50:01;;;;;;;8.88;1.92;;;;;;;19.68;33.00;102547.56;16097321;19;129597;-44
2023/05/30 01:55:25;;;;;;;6.85;1.73;;;;;;;19.66;33.24;102544.13;16097165;19;130822;-45
2023/05/30 02:00:48;;;;;;;7.43;1.77;;;;;;;19.65;33.22;102545.19;16094863;19;129963;-43
2023/05/30 02:06:11;;;;;;;6.25;1.95;;;;;;;19.63;33.49;102550.09;16102652;19;130151;-46
2023/05/30 02:11:32;;;;;;;5.25;1.75;;;;;;;19.63;33.08;102558.44;16094361;19;129660;-45
2023/05/30 02:16:55;;;;;;;8.52;1.80;;;;;;;19.63;33.33;102561.22;16102584;19;131703;-44
2023/05/30 02:22:17;;;;;;;6.80;2.00;;;;;;;19.62;33.12;102553.94;16100839;19;129546;-43
2023/05/30 02:27:39;;;;;;;7.35;2.05;;;;;;;19.62;33.45;102553.94;16100153;19;130176;-43
2023/05/30 02:33:01;;;;;;;5.85;1.65;;;;;;;19.60;33.60;102544.13;16101903;19;129669;-47
2023/05/30 02:38:23;;;;;;;6.70;1.73;;;;;;;19.60;33.69;102558.84;16103506;19;130098;-43
2023/05/30 02:43:45;;;;;;;7.15;1.67;;;;;;;19.57;33.54;102553.72;16100732;19;131701;-47
2023/05/30 02:49:07;;;;;;;9.52;1.80;;;;;;;19.58;33.58;102554.59;16104864;19;130262;-46
2023/05/30 02:54:31;;;;;;;9.98;2.10;;;;;;;19.56;33.55;102549.25;16106347;19;130099;-47
2023/05/30 02:59:53;;;;;;;7.03;1.70;;;;;;;19.56;33.52;102548.41;16102800;19;130520;-43
2023/05/30 03:05:15;;;;;;;5.20;1.63;;;;;;;19.55;33.55;102558.66;16107646;19;130436;-45
2023/05/30 03:10:37;;;;;;;6.72;2.08;;;;;;;19.54;33.36;102554.16;16105203;19;129626;-45
2023/05/30 03:15:59;;;;;;;6.43;1.77;;;;;;;19.53;33.64;102550.53;16103726;19;130710;-46
2023/05/30 03:21:23;;;;;;;6.55;1.60;;;;;;;19.52;33.76;102559.06;16104039;19;131124;-46
2023/05/30 03:26:44;;;;;;;6.00;1.83;;;;;;;19.51;33.44;102569.31;16102944;19;132183;-44
2023/05/30 03:32:07;;;;;;;6.68;2.13;;;;;;;19.49;33.38;102568.69;16099130;19;131419;-43
2023/05/30 03:37:29;;;;;;;5.68;1.85;;;;;;;19.49;33.55;102571.47;16112245;19;129600;-52
2023/05/30 03:42:51;;;;;;;6.43;1.98;;;;;;;19.49;33.91;102578.91;16121293;19;131118;-45
2023/05/30 03:48:13;;;;;;;6.32;1.70;;;;;;;19.48;33.57;102588.31;16118824;19;130199;-45
2023/05/30 03:53:35;;;;;;;6.43;1.63;;;;;;;19.46;33.46;102598.78;16118430;19;131166;-43
2023/05/30 03:58:58;;;;;;;7.53;1.75;;;;;;;19.45;34.01;102597.06;16116551;19;129069;-45
2023/05/30 04:04:19;;;;;;;6.60;1.80;;;;;;;19.45;33.61;102594.28;16120025;19;129260;-44
2023/05/30 04:09:41;;;;;;;7.53;2.10;;;;;;;19.43;33.63;102594.50;16118633;19;130891;-43
2023/05/30 04:15:04;;;;;;;7.18;1.73;;;;;;;19.44;34.03;102598.16;16118141;19;130011;-46
2023/05/30 04:20:26;;;;;;;8.10;1.60;;;;;;;19.41;34.10;102593.84;16121857;19;130897;-45
2023/05/30 04:25:48;;;;;;;6.18;1.77;;;;;;;19.40;33.85;102594.06;16114904;19;131300;-45
2023/05/30 04:31:10;;;;;;;9.23;2.38;;;;;;;19.40;33.98;102596.84;16117894;19;129632;-43
2023/05/30 04:36:44;;;;;;;6.35;1.90;;;;;;;19.40;33.67;102599.63;16115448;19;130745;-44
2023/05/30 04:42:06;;;;;;;9.95;2.25;;;;;;;19.38;34.05;102603.47;16119168;19;129713;-43
2023/05/30 04:47:28;;;;;;;11.60;2.03;;;;;;;19.36;34.04;102600.03;16116481;19;130835;-44
2023/05/30 04:52:50;;;;;;;8.05;1.60;;;;;;;19.35;34.13;102612.22;16114609;19;129730;-44
2023/05/30 04:58:13;;;;;;;6.53;1.95;;;;;;;19.35;34.19;102609.44;16115125;19;129567;-44
2023/05/30 05:03:36;;;;;;;8.88;2.20;;;;;;;19.34;34.00;102604.94;16112999;19;130625;-47
2023/05/30 05:08:59;;;;;;;6.80;1.95;;;;;;;19.36;33.75;102602.81;16111757;19;130541;-49
2023/05/30 05:14:22;;;;;;;6.32;1.98;;;;;;;19.46;33.73;102605.19;16112038;19;130940;-47
2023/05/30 05:19:44;;;;;;;9.25;2.20;;;;;;;19.55;33.57;102597.53;16110206;19;129655;-46
2023/05/30 05:25:06;;;;;;;13.45;2.28;;;;;;;19.65;33.44;102608.19;16107345;19;129616;-44
2023/05/30 05:30:28;;;;;;;7.60;2.22;;;;;;;19.76;33.37;102615.03;16111634;19;131540;-45
2023/05/30 05:35:50;;;;;;;6.13;1.98;;;;;;;19.84;33.74;102618.47;16106240;19;134183;-47
2023/05/30 05:41:12;;;;;;;11.02;1.88;;;;;;;19.90;33.63;102616.75;16105457;19;131055;-48
2023/05/30 05:46:34;;;;;;;8.00;1.92;;;;;;;19.97;33.22;102617.59;16104817;19;129450;-43
2023/05/30 05:51:57;;;;;;;8.57;1.92;;;;;;;20.02;33.62;102616.97;16109756;19;129960;-48
2023/05/30 05:57:20;;;;;;;5.20;1.67;;;;;;;20.07;33.46;102616.34;16110898;19;129469;-44
2023/05/30 06:02:42;;;;;;;7.30;2.08;;;;;;;20.12;33.52;102611.84;16107859;19;129799;-46
2023/05/30 06:08:04;;;;;;;7.05;2.10;;;;;;;20.18;33.41;102626.81;16110125;19;130729;-44
2023/05/30 06:13:26;;;;;;;9.00;2.10;;;;;;;20.21;33.25;102629.16;16108069;19;131189;-43
2023/05/30 06:18:48;;;;;;;7.60;2.08;;;;;;;20.22;33.58;102633.63;16110832;19;130184;-44
2023/05/30 06:24:10;;;;;;;8.95;2.30;;;;;;;20.27;33.06;102642.19;16113147;19;131126;-44
2023/05/30 06:29:33;;;;;;;6.78;2.17;;;;;;;20.33;33.41;102645.16;16109805;19;129766;-43
2023/05/30 06:34:55;;;;;;;5.32;1.63;;;;;;;20.35;33.04;102641.13;16110407;19;130189;-44
2023/05/30 06:40:17;;;;;;;7.40;1.98;;;;;;;20.37;33.49;102655.63;16106415;19;130507;-45
2023/05/30 06:45:39;;;;;;;8.50;2.08;;;;;;;20.40;32.99;102654.38;16104897;19;130029;-47
2023/05/30 06:51:01;;;;;;;6.35;1.63;;;;;;;20.44;33.13;102653.72;16104105;19;130772;-43
2023/05/30 06:56:26;;;;;;;5.90;2.10;;;;;;;20.50;33.27;102659.47;16109429;19;129720;-43
2023/05/30 07:01:47;;;;;;;6.47;1.80;;;;;;;20.49;32.78;102653.06;16106847;19;131007;-44
2023/05/30 07:07:10;;;;;;;8.48;2.42;;;;;;;20.51;32.98;102672.28;16107471;19;129794;-43
2023/05/30 07:12:32;;;;;;;9.73;2.17;;;;;;;20.48;32.88;102670.81;16114886;19;131147;-45
2023/05/30 07:17:54;;;;;;;6.80;2.03;;;;;;;20.50;32.90;102668.66;16124694;19;130968;-45
2023/05/30 07:23:17;;;;;;;8.68;2.13;;;;;;;20.52;32.67;102669.31;16120186;19;130703;-45
2023/05/30 07:28:38;;;;;;;5.40;1.98;;;;;;;20.56;32.61;102670.56;16119642;19;130178;-42
2023/05/30 07:34:00;;;;;;;7.80;1.92;;;;;;;20.61;32.53;102675.50;16116756;19;130811;-45
2023/05/30 07:39:23;;;;;;;7.38;2.28;;;;;;;20.63;32.77;102675.28;16118839;19;129939;-43
2023/05/30 07:44:45;;;;;;;7.20;1.90;;;;;;;20.59;33.10;102669.31;16118966;19;130423;-44
2023/05/30 07:50:08;;;;;;;5.53;1.63;;;;;;;20.59;32.99;102667.34;16120847;19;131765;-43
2023/05/30 07:55:29;;;;;;;7.57;1.83;;;;;;;20.54;32.61;102661.63;16123183;19;130221;-44
2023/05/30 08:00:51;;;;;;;5.32;1.75;;;;;;;20.51;32.84;102667.59;16121056;19;129618;-44
2023/05/30 08:06:13;;;;;;;6.22;2.15;;;;;;;20.53;32.61;102664.59;16122459;19;130991;-46
2023/05/30 08:11:35;;;;;;;5.13;2.10;;;;;;;20.55;32.75;102662.44;16120042;19;130210;-45
2023/05/30 08:16:57;;;;;;;6.75;1.80;;;;;;;20.57;32.91;102660.31;16118588;19;129875;-45
2023/05/30 08:22:21;;;;;;;5.10;1.85;;;;;;;20.59;32.92;102650.69;16120290;19;129496;-49
2023/05/30 08:27:44;;;;;;;6.00;1.90;;;;;;;20.60;32.62;102660.72;16116493;19;130708;-47
2023/05/30 08:33:10;;;;;;;4.60;1.75;;;;;;;20.62;32.95;102654.09;16115088;19;130948;-47
2023/05/30 08:38:32;;;;;;;6.20;2.10;;;;;;;20.64;32.73;102649.19;16120535;19;129621;-50
2023/05/30 08:43:54;;;;;;;5.75;2.22;;;;;;;20.64;32.88;102646.41;16118528;19;130369;-47
2023/05/30 08:49:21;;;;;;;6.25;2.13;;;;;;;20.64;33.00;102641.69;16116738;19;131304;-43
2023/05/30 08:55:11;;;;;;;8.45;2.53;;;;;;;20.63;32.96;102625.22;16117134;19;129063;-47
2023/05/30 09:00:34;;;;;;;8.75;2.70;;;;;;;20.60;33.08;102624.59;16112701;19;129709;-47
2023/05/30 09:05:56;;;;;;;9.35;2.90;;;;;;;20.60;32.96;102626.53;16117612;19;129596;-45
2023/05/30 09:11:21;;;;;;;4.90;1.88;;;;;;;20.62;32.80;102623.50;16114620;19;130191;-44
2023/05/30 09:16:43;;;;;;;7.53;2.60;;;;;;;20.62;32.71;102617.94;16104353;19;131578;-43
2023/05/30 09:22:06;;;;;;;5.78;1.77;;;;;;;20.60;32.76;102616.25;16115444;19;133572;-46
2023/05/30 09:27:30;;;;;;;5.90;2.60;;;;;;;20.62;33.00;102613.22;16116529;19;130343;-46
2023/05/30 09:33:02;;;;;;;7.55;2.20;;;;;;;20.63;32.67;102608.53;16111951;19;130228;-44
2023/05/30 09:38:25;;;;;;;6.22;2.03;;;;;;;20.57;32.84;102604.72;16115539;19;129881;-45
2023/05/30 09:43:52;;;;;;;8.27;2.15;;;;;;;20.59;32.86;102614.53;16112496;19;131014;-44
2023/05/30 09:49:14;;;;;;;6.82;1.92;;;;;;;20.56;33.03;102601.06;16111874;19;131784;-44
2023/05/30 09:54:36;;;;;;;6.25;2.33;;;;;;;20.54;32.95;102605.13;16108284;19;130406;-43
2023/05/30 09:59:58;;;;;;;7.10;2.15;;;;;;;20.49;32.99;102603.00;16112519;19;130299;-45
2023/05/30 10:05:23;;;;;;;10.20;2.38;;;;;;;20.47;33.06;102601.53;16113053;19;129583;-49
2023/05/30 10:10:45;;;;;;;5.63;2.17;;;;;;;20.44;33.31;102588.91;16110571;19;130565;-49
2023/05/30 10:16:14;;;;;;;6.18;2.30;;;;;;;20.45;33.05;102588.69;16107681;19;130166;-45
2023/05/30 10:21:38;;;;;;;4.50;1.90;;;;;;;20.42;33.13;102580.78;16111370;19;131901;-48
2023/05/30 10:27:03;;;;;;;6.55;2.30;;;;;;;20.42;33.19;102578.00;16107112;19;129382;-45
2023/05/30 10:32:27;;;;;;;;;;;;;;;20.38;33.16;102584.22;16112551;19;133977;-44
2023/05/30 10:37:49;;;;;;;4.43;2.03;;;;;;;20.39;33.22;102569.25;16111640;19;130801;-47
2023/05/30 10:43:14;;;;;;;6.72;2.50;;;;;;;20.37;33.18;102572.25;16109149;19;130541;-46
2023/05/30 10:48:53;;;;;;;5.33;1.90;;;;;;;20.37;33.51;102565.84;16125617;19;129442;-45
2023/05/30 10:54:15;;;;;;;11.10;2.50;;;;;;;20.34;33.01;102563.50;16129182;19;129806;-45
2023/05/30 10:59:37;;;;;;;7.13;2.58;;;;;;;20.35;33.36;102567.97;16126023;19;129638;-44
2023/05/30 11:05:05;;;;;;;6.18;2.38;;;;;;;20.35;33.55;102559.66;16118843;19;130204;-46
2023/05/30 11:10:31;;;;;;;6.00;2.08;;;;;;;20.35;33.19;102556.84;16120688;19;130625;-48
2023/05/30 11:15:54;;;;;;;6.20;2.58;;;;;;;20.34;33.63;102550.47;16121065;19;130501;-46
2023/05/30 11:21:55;;;;;;;5.75;2.30;;;;;;;20.34;33.41;102546.81;16119465;19;129769;-45
2023/05/30 11:27:17;;;;;;;6.30;2.17;;;;;;;20.33;33.22;102547.88;16119840;19;130546;-45
2023/05/30 11:32:40;;;;;;;6.50;2.25;;;;;;;20.33;33.44;102534.00;16117208;19;129778;-44
2023/05/30 11:38:02;;;;;;;7.43;2.83;;;;;;;20.33;33.22;102520.09;16116911;19;129922;-44
2023/05/30 11:43:24;;;;;;;6.80;2.50;;;;;;;20.31;33.62;102522.25;16122642;19;129596;-45
2023/05/30 11:48:46;;;;;;;6.40;2.50;;;;;;;20.31;33.19;102511.16;16118763;19;130362;-46
2023/05/30 11:54:09;;;;;;;5.47;2.30;;;;;;;20.31;33.70;102505.59;16116696;19;131305;-46
2023/05/30 11:59:30;;;;;;;5.72;2.30;;;;;;;20.29;33.54;102520.56;16120915;19;133772;-45
2023/05/30 12:05:03;;;;;;;5.80;2.33;;;;;;;20.32;33.63;102502.56;16119338;19;130951;-44
2023/05/30 12:10:29;;;;;;;8.48;2.75;;;;;;;20.30;33.65;102499.16;16118034;19;130285;-45
2023/05/30 12:15:51;;;;;;;4.38;2.40;;;;;;;20.26;33.52;102489.53;16120284;19;130152;-45
2023/05/30 12:21:13;;;;;;;6.13;2.95;;;;;;;20.24;33.54;102484.22;16115980;19;132343;-43
2023/05/30 12:26:35;;;;;;;5.40;2.40;;;;;;;20.22;33.78;102480.78;16118507;19;130968;-43
2023/05/30 12:31:57;;;;;;;6.80;2.40;;;;;;;20.23;33.48;102467.78;16110728;19;130274;-45
2023/05/30 12:37:19;;;;;;;13.73;2.78;;;;;;;20.23;33.65;102476.94;16114962;19;129853;-45
2023/05/30 12:42:43;;;;;;;10.07;2.83;;;;;;;20.24;33.86;102466.69;16114176;19;130914;-45
2023/05/30 12:48:05;;;;;;;11.18;2.22;;;;;;;20.25;33.85;102458.13;16114731;19;130090;-46
2023/05/30 12:53:27;;;;;;;8.32;2.70;;;;;;;20.24;33.66;102464.75;16113777;19;129768;-43
2023/05/30 12:58:49;;;;;;;8.75;2.70;;;;;;;20.24;33.74;102464.75;16113680;19;131862;-43
2023/05/30 13:04:11;;;;;;;8.82;2.80;;;;;;;20.23;33.67;102456.66;16114245;19;130758;-46
2023/05/30 13:09:34;;;;;;;7.95;3.28;;;;;;;20.23;33.43;102457.50;16103939;19;131188;-44
2023/05/30 13:14:56;;;;;;;6.35;2.58;;;;;;;20.23;33.86;102448.31;16101407;19;129600;-46
2023/05/30 13:20:18;;;;;;;7.63;3.20;;;;;;;20.22;33.46;102436.34;16110626;19;130038;-46
2023/05/30 13:25:40;;;;;;;6.90;2.38;;;;;;;20.22;33.47;102435.50;16100999;19;131580;-43
2023/05/30 13:31:03;;;;;;;10.45;2.58;;;;;;;20.21;33.74;102429.06;16111294;19;131077;-44
2023/05/30 13:36:25;;;;;;;6.70;2.72;;;;;;;20.27;34.04;102430.13;16116341;19;130454;-42
2023/05/30 13:41:48;;;;;;;10.55;2.60;;;;;;;20.33;34.19;102420.03;16105172;19;131212;-43
2023/05/30 13:47:09;;;;;;;10.98;3.42;;;;;;;20.37;33.80;102421.31;16109548;19;129698;-44
2023/05/30 13:52:31;;;;;;;8.23;3.20;;;;;;;20.38;33.75;102415.50;16106500;19;130437;-43
2023/05/30 13:57:53;;;;;;;8.07;2.80;;;;;;;20.40;33.78;102409.75;16104393;19;129292;-44
2023/05/30 14:03:15;;;;;;;10.13;2.83;;;;;;;20.41;33.87;102405.91;16107428;19;129577;-46
2023/05/30 14:08:37;;;;;;;10.88;3.00;;;;;;;20.43;33.72;102403.75;16110594;19;129905;-45
2023/05/30 14:13:59;;;;;;;10.32;3.20;;;;;;;20.45;34.08;102401.56;16112087;19;129979;-41
2023/05/30 14:19:28;;;;;;;8.05;2.90;;;;;;;20.47;33.88;102393.03;16109378;19;130149;-46
2023/05/30 14:24:50;;;;;;;8.13;3.10;;;;;;;20.46;33.76;102389.38;16110996;19;129569;-44
2023/05/30 14:30:16;;;;;;;7.88;3.00;;;;;;;20.48;33.75;102390.03;16106823;19;129680;-44
2023/05/30 14:35:38;;;;;;;10.85;3.00;;;;;;;20.49;33.85;102379.78;16109562;19;131277;-43
2023/05/30 14:41:00;;;;;;;14.23;3.65;;;;;;;20.48;34.32;102373.34;16106168;19;130350;-43
2023/05/30 14:46:22;;;;;;;11.18;3.40;;;;;;;20.48;34.04;102376.13;16107191;19;131012;-44
2023/05/30 14:51:45;;;;;;;9.95;3.13;;;;;;;20.49;34.24;102365.88;16097727;19;130275;-42
2023/05/30 14:57:07;;;;;;;11.95;3.22;;;;;;;20.50;34.38;102373.97;16102013;19;129607;-42
2023/05/30 15:02:29;;;;;;;9.13;3.58;;;;;;;20.49;34.32;102369.47;16107891;19;129570;-47
2023/05/30 15:07:51;;;;;;;8.07;3.05;;;;;;;20.50;34.11;102360.06;16108010;19;130695;-45
2023/05/30 15:13:13;;;;;;;14.50;3.15;;;;;;;20.49;34.01;102366.72;16105213;19;130563;-43
2023/05/30 15:18:35;;;;;;;7.18;3.42;;;;;;;20.50;34.78;102354.50;16106434;19;130457;-47
2023/05/30 15:23:57;;;;;;;7.18;3.33;;;;;;;20.51;35.43;102349.78;16105261;19;131061;-44
2023/05/30 15:29:19;;;;;;;11.20;3.40;;;;;;;20.52;35.66;102349.59;16108100;19;131335;-44
2023/05/30 15:34:42;;;;;;;11.38;3.67;;;;;;;20.53;35.61;102351.28;16115432;19;131073;-42
2023/05/30 15:40:04;;;;;;;10.55;3.38;;;;;;;20.52;35.78;102349.59;16125995;19;129951;-43
2023/05/30 15:45:27;;;;;;;7.40;3.50;;;;;;;20.55;35.26;102351.06;16126174;19;130372;-42
2023/05/30 15:50:49;;;;;;;9.68;3.58;;;;;;;20.57;35.41;102343.34;16117191;19;130346;-44
2023/05/30 15:56:11;;;;;;;9.68;3.63;;;;;;;20.57;34.96;102338.63;16119526;19;130343;-41
2023/05/30 16:01:32;;;;;;;9.63;3.40;;;;;;;20.56;35.31;102331.34;16122194;19;130189;-44
2023/05/30 16:06:56;;;;;;;10.77;3.30;;;;;;;20.56;35.37;102328.56;16115380;19;129428;-42
2023/05/30 16:12:21;;;;;;;9.63;3.47;;;;;;;20.58;35.01;102329.22;16117456;19;130103;-46
2023/05/30 16:17:43;;;;;;;8.57;3.88;;;;;;;20.57;34.77;102319.16;16120300;19;130834;-44
2023/05/30 16:23:05;;;;;;;14.55;4.15;;;;;;;20.58;34.57;102312.53;16115257;19;131622;-42
2023/05/30 16:28:27;;;;;;;12.65;3.55;;;;;;;20.58;34.82;102312.53;16118065;19;130253;-44
2023/05/30 16:33:49;;;;;;;10.73;3.42;;;;;;;20.58;35.03;102309.75;16119631;19;129747;-44
2023/05/30 16:39:12;;;;;;;10.15;4.10;;;;;;;20.58;35.29;102312.53;16116817;19;129747;-41
2023/05/30 16:44:34;;;;;;;12.13;3.75;;;;;;;20.58;35.55;102306.97;16118957;19;130626;-43
2023/05/30 16:49:56;;;;;;;11.30;3.70;;;;;;;20.57;35.39;102312.75;16117750;19;130253;-42
2023/05/30 16:55:18;;;;;;;9.45;3.70;;;;;;;20.60;35.64;102320.66;16112596;19;130822;-44
2023/05/30 17:00:40;;;;;;;10.82;3.75;;;;;;;20.60;35.96;102315.09;16115363;19;131403;-41
2023/05/30 17:06:03;;;;;;;11.13;3.70;;;;;;;20.59;36.15;102308.66;16111499;19;129535;-42
2023/05/30 17:11:25;;;;;;;11.45;3.83;;;;;;;20.60;36.42;102318.72;16106682;19;131136;-43
2023/05/30 17:16:47;;;;;;;8.95;3.40;;;;;;;20.58;36.00;102312.53;16112039;19;131117;-44
2023/05/30 17:22:09;;;;;;;12.07;3.65;;;;;;;20.59;36.02;102313.41;16113525;19;129811;-42
2023/05/30 17:27:31;;;;;;;12.10;3.63;;;;;;;20.60;36.63;102321.50;16111456;19;134998;-42
2023/05/30 17:32:53;;;;;;;8.02;3.78;;;;;;;20.62;36.50;102323.19;16113503;19;131329;-42
2023/05/30 17:38:15;;;;;;;7.95;3.35;;;;;;;20.62;36.60;102317.63;16110676;19;131509;-41
2023/05/30 17:43:36;;;;;;;7.15;2.83;;;;;;;20.62;36.34;102320.41;16108062;19;129932;-42
2023/05/30 17:48:58;;;;;;;9.15;3.20;;;;;;;20.63;36.64;102324.91;16107802;19;131068;-40
2023/05/30 17:54:20;;;;;;;11.90;2.80;;;;;;;20.62;36.66;102332.38;16106951;19;131787;-39
2023/05/30 17:59:42;;;;;;;5.88;2.72;;;;;;;20.64;36.31;102332.19;16113912;19;129756;-45
2023/05/30 18:05:05;;;;;;;7.80;3.38;;;;;;;20.63;36.83;102328.53;16108097;19;131104;-41
2023/05/30 18:10:27;;;;;;;8.50;2.72;;;;;;;20.65;36.67;102331.09;16108603;19;129966;-40
2023/05/30 18:15:49;;;;;;;8.30;2.80;;;;;;;20.65;36.59;102336.66;16112455;19;129587;-41
2023/05/30 18:21:11;;;;;;;7.07;3.17;;;;;;;20.66;37.15;102347.53;16108927;19;129694;-45
2023/05/30 18:26:33;;;;;;;11.77;2.97;;;;;;;20.67;37.22;102349.25;16111475;19;129698;-41
2023/05/30 18:31:55;;;;;;;7.72;2.42;;;;;;;20.65;37.40;102348.63;16110972;19;130175;-40
2023/05/30 18:37:18;;;;;;;9.48;2.70;;;;;;;20.62;37.11;102365.75;16115262;19;130557;-43
2023/05/30 18:42:42;;;;;;;6.40;2.92;;;;;;;20.58;37.69;102362.56;16109841;19;131468;-42
2023/05/30 18:48:04;;;;;;;12.43;2.53;;;;;;;20.55;37.48;102357.47;16106141;19;130755;-42
2023/05/30 18:53:26;;;;;;;7.93;2.75;;;;;;;20.53;37.42;102370.75;16104619;19;130018;-42
2023/05/30 18:58:54;;;;;;;6.22;2.35;;;;;;;20.53;37.02;102370.75;16101075;19;130723;-42
2023/05/30 19:04:16;;;;;;;9.48;2.50;;;;;;;20.49;37.39;102369.47;16103210;19;131528;-43
2023/05/30 19:09:39;;;;;;;9.57;2.40;;;;;;;20.46;36.98;102364.38;16114627;19;129468;-43
2023/05/30 19:15:01;;;;;;;6.93;2.50;;;;;;;20.43;37.36;102370.41;16112578;19;131695;-42
2023/05/30 19:20:25;;;;;;;49.00;4.85;;;;;;;20.41;36.95;102378.09;16121101;19;129884;-44
2023/05/30 19:25:47;;;;;;;30.95;2.83;;;;;;;20.39;37.20;102366.34;16118105;19;130542;-44
2023/05/30 19:31:13;;;;;;;21.30;3.50;;;;;;;20.36;37.44;102364.88;16117408;19;130598;-42
2023/05/30 19:36:36;;;;;;;6.60;2.72;;;;;;;20.35;37.55;102367.88;16118264;19;130320;-42
2023/05/30 19:41:58;;;;;;;14.90;2.60;;;;;;;20.32;37.46;102366.38;16114732;19;131713;-40
2023/05/30 19:47:20;;;;;;;22.63;3.63;;;;;;;20.36;39.11;102372.34;16115944;19;129804;-39
2023/05/30 19:52:43;;;;;;;11.65;3.53;;;;;;;20.36;38.94;102378.78;16118263;19;129397;-40
2023/05/30 19:58:05;;;;;;;12.48;2.70;;;;;;;20.37;39.03;102385.16;16110693;19;132428;-39
2023/05/30 20:03:27;;;;;;;9.52;2.80;;;;;;;20.36;38.75;102395.44;16118263;19;129757;-43
2023/05/30 20:08:49;;;;;;;6.50;2.13;;;;;;;20.35;38.92;102399.31;16121610;19;130742;-43
2023/05/30 20:14:11;;;;;;;10.38;2.78;;;;;;;20.35;38.77;102402.09;16120470;19;129882;-39
2023/05/30 20:19:33;;;;;;;9.50;2.17;;;;;;;20.34;38.44;102402.28;16113132;19;131662;-40
2023/05/30 20:24:55;;;;;;;6.88;2.08;;;;;;;20.32;38.64;102399.75;16118522;19;129472;-40
2023/05/30 20:30:18;;;;;;;6.85;2.10;;;;;;;20.31;38.41;102402.75;16115633;19;130843;-39
2023/05/30 20:35:40;;;;;;;7.80;2.30;;;;;;;20.29;38.75;102405.72;16117471;19;131881;-42
2023/05/30 20:41:02;;;;;;;3.97;1.92;;;;;;;20.28;38.52;102412.38;16113508;19;130216;-40
2023/05/30 20:46:24;;;;;;;4.03;1.80;;;;;;;20.27;38.41;102405.09;16114647;19;129461;-40
2023/05/30 20:51:46;;;;;;;5.43;1.83;;;;;;;20.26;38.26;102407.03;16115645;19;130840;-39
2023/05/30 20:57:16;;;;;;;5.72;2.03;;;;;;;20.26;38.27;102407.03;16117925;19;129242;-40
2023/05/30 21:02:38;;;;;;;6.00;1.48;;;;;;;20.24;38.01;102400.00;16114972;19;130846;-40
2023/05/30 21:08:01;;;;;;;3.92;1.30;;;;;;;20.24;38.30;102402.78;16113835;19;130172;-39
2023/05/30 21:13:23;;;;;;;11.60;1.90;;;;;;;20.22;38.17;102416.03;16114080;19;130063;-40
2023/05/30 21:18:45;;;;;;;9.35;2.33;;;;;;;20.21;38.30;102417.94;16105962;19;131743;-43
2023/05/30 21:24:07;;;;;;;4.90;1.58;;;;;;;20.19;38.45;102420.09;16111225;19;130169;-45
2023/05/30 21:29:30;;;;;;;6.05;1.75;;;;;;;20.17;38.32;102416.72;16108803;19;130738;-41
2023/05/30 21:34:52;;;;;;;5.03;1.40;;;;;;;20.13;38.28;102413.50;16109795;19;129889;-41
2023/05/30 21:40:14;;;;;;;3.45;1.52;;;;;;;20.10;38.44;102418.66;16114464;19;129516;-41
2023/05/30 21:45:39;;;;;;;5.38;1.40;;;;;;;20.10;38.40;102415.88;16105832;19;130007;-40
2023/05/30 21:51:01;;;;;;;6.15;1.33;;;;;;;20.06;38.43;102421.00;16101910;19;130756;-40
2023/05/30 21:56:23;;;;;;;3.95;1.45;;;;;;;20.06;38.09;102421.00;16109673;19;130798;-41
2023/05/30 22:01:45;;;;;;;3.83;1.65;;;;;;;20.04;38.25;102419.53;16105660;19;129469;-42
2023/05/30 22:07:07;;;;;;;1.63;1.20;;;;;;;20.02;37.99;102413.34;16107647;19;131441;-41
2023/05/30 22:12:29;;;;;;;2.33;1.10;;;;;;;20.00;37.99;102421.88;16108875;19;130579;-49
2023/05/30 22:17:51;;;;;;;2.47;1.00;;;;;;;20.00;37.95;102416.31;16109081;19;130433;-41
2023/05/30 22:23:14;;;;;;;4.97;1.40;;;;;;;19.99;38.08;102426.59;16102746;19;129977;-40
2023/05/30 22:28:36;;;;;;;6.53;1.40;;;;;;;19.97;38.43;102434.25;16104689;19;130460;-41
2023/05/30 22:33:59;;;;;;;2.42;1.33;;;;;;;19.97;38.29;102439.81;16100772;19;134463;-42
2023/05/30 22:39:21;;;;;;;3.72;1.15;;;;;;;19.96;38.22;102427.00;16099938;19;130954;-42
2023/05/30 22:44:43;;;;;;;1.70;1.00;;;;;;;19.95;38.43;102430.84;16096543;19;129882;-40
2023/05/30 22:50:06;;;;;;;4.75;1.33;;;;;;;19.94;38.04;102439.41;16092495;19;131048;-41
2023/05/30 22:55:28;;;;;;;4.53;1.50;;;;;;;19.93;38.24;102433.00;16093112;19;133937;-40
2023/05/30 23:00:50;;;;;;;2.70;1.30;;;;;;;19.91;38.25;102424.03;16099649;19;131791;-44
2023/05/30 23:06:11;;;;;;;4.45;1.38;;;;;;;19.91;38.28;102423.16;16098532;19;131096;-39
2023/05/30 23:11:34;;;;;;;2.75;1.10;;;;;;;19.90;38.37;102432.56;16105753;19;130278;-41
2023/05/30 23:16:56;;;;;;;1.63;1.05;;;;;;;19.88;37.97;102427.25;16103227;19;129913;-42
2023/05/30 23:22:18;;;;;;;1.80;1.00;;;;;;;19.88;38.19;102420.84;16101122;19;132020;-42
2023/05/30 23:27:40;;;;;;;2.83;1.23;;;;;;;19.87;38.35;102414.44;16100807;19;129521;-40
2023/05/30 23:33:02;;;;;;;2.83;1.17;;;;;;;19.86;38.11;102412.72;16101176;19;130919;-39
2023/05/30 23:38:26;;;;;;;2.75;1.13;;;;;;;19.86;38.05;102411.88;16104684;19;129608;-40
2023/05/30 23:43:48;;;;;;;2.50;1.20;;;;;;;19.84;38.17;102410.16;16107841;19;130621;-42
2023/05/30 23:49:10;;;;;;;1.67;1.00;;;;;;;19.83;38.22;102407.59;16102104;19;131898;-41
2023/05/30 23:54:32;;;;;;;1.40;1.02;;;;;;;19.81;37.99;102416.16;16114157;19;129919;-42
2023/05/30 23:59:54;;;;;;;1.80;1.10;;;;;;;19.81;38.08;102418.94;16121967;19;130031;-40
